sensor_id;sensor_type;location;lat;lon;timestamp;P1;durP1;ratioP1;P2;durP2;ratioP2
11907;SDS011;6014;47.690;9.130;2024-03-23T00:54:04;3.00;;;1.60;;
11907;SDS011;6014;47.690;9.130;2024-03-23T00:56:31;4.10;;;1.87;;
11907;SDS011;6014;47.690;9.130;2024-03-23T00:58:58;3.93;;;1.80;;
11907;SDS011;6014;47.690;9.130;2024-03-23T01:01:25;2.93;;;1.83;;
11907;SDS011;6014;47.690;9.130;2024-03-23T01:03:52;2.77;;;1.77;;
11907;SDS011;6014;47.690;9.130;2024-03-23T01:06:19;3.60;;;1.97;;
11907;SDS011;6014;47.690;9.130;2024-03-23T01:08:47;4.10;;;1.90;;
11907;SDS011;6014;47.690;9.130;2024-03-23T01:11:14;4.33;;;2.07;;
11907;SDS011;6014;47.690;9.130;2024-03-23T01:13:40;4.50;;;2.20;;
11907;SDS011;6014;47.690;9.130;2024-03-23T01:16:08;3.70;;;1.70;;
11907;SDS011;6014;47.690;9.130;2024-03-23T01:18:34;5.23;;;1.50;;
11907;SDS011;6014;47.690;9.130;2024-03-23T01:21:01;3.67;;;2.00;;
11907;SDS011;6014;47.690;9.130;2024-03-23T01:23:29;3.33;;;1.90;;
11907;SDS011;6014;47.690;9.130;2024-03-23T01:25:58;3.57;;;1.80;;
11907;SDS011;6014;47.690;9.130;2024-03-23T01:28:24;4.10;;;1.93;;
11907;SDS011;6014;47.690;9.130;2024-03-23T01:30:51;3.53;;;1.90;;
11907;SDS011;6014;47.690;9.130;2024-03-23T01:33:17;3.77;;;1.87;;
11907;SDS011;6014;47.690;9.130;2024-03-23T01:35:45;4.27;;;2.10;;
11907;SDS011;6014;47.690;9.130;2024-03-23T01:38:11;2.83;;;1.57;;
11907;SDS011;6014;47.690;9.130;2024-03-23T01:40:38;4.13;;;1.53;;
11907;SDS011;6014;47.690;9.130;2024-03-23T01:43:07;3.33;;;1.90;;
11907;SDS011;6014;47.690;9.130;2024-03-23T01:45:35;5.07;;;1.87;;
11907;SDS011;6014;47.690;9.130;2024-03-23T01:48:02;4.80;;;1.80;;
11907;SDS011;6014;47.690;9.130;2024-03-23T01:50:31;2.87;;;1.73;;
11907;SDS011;6014;47.690;9.130;2024-03-23T01:52:59;3.97;;;1.70;;
11907;SDS011;6014;47.690;9.130;2024-03-23T01:55:30;5.43;;;1.73;;
11907;SDS011;6014;47.690;9.130;2024-03-23T01:57:57;3.73;;;1.87;;
11907;SDS011;6014;47.690;9.130;2024-03-23T02:02:57;3.30;;;1.70;;
11907;SDS011;6014;47.690;9.130;2024-03-23T02:05:24;3.50;;;1.87;;
11907;SDS011;6014;47.690;9.130;2024-03-23T02:07:51;3.33;;;1.80;;
11907;SDS011;6014;47.690;9.130;2024-03-23T02:10:18;5.33;;;1.90;;
11907;SDS011;6014;47.690;9.130;2024-03-23T02:12:44;4.80;;;2.03;;
11907;SDS011;6014;47.690;9.130;2024-03-23T02:15:12;5.33;;;2.30;;
11907;SDS011;6014;47.690;9.130;2024-03-23T02:17:40;3.30;;;1.73;;
11907;SDS011;6014;47.690;9.130;2024-03-23T02:22:53;4.00;;;1.93;;
11907;SDS011;6014;47.690;9.130;2024-03-23T02:25:20;4.20;;;2.07;;
11907;SDS011;6014;47.690;9.130;2024-03-23T02:27:47;4.40;;;1.80;;
11907;SDS011;6014;47.690;9.130;2024-03-23T02:30:14;5.47;;;2.10;;
11907;SDS011;6014;47.690;9.130;2024-03-23T02:32:41;3.17;;;1.87;;
11907;SDS011;6014;47.690;9.130;2024-03-23T02:35:08;4.37;;;2.10;;
11907;SDS011;6014;47.690;9.130;2024-03-23T02:37:34;4.03;;;1.97;;
11907;SDS011;6014;47.690;9.130;2024-03-23T02:40:03;3.87;;;2.07;;
11907;SDS011;6014;47.690;9.130;2024-03-23T02:42:30;3.47;;;1.73;;
11907;SDS011;6014;47.690;9.130;2024-03-23T02:44:58;4.30;;;2.20;;
11907;SDS011;6014;47.690;9.130;2024-03-23T02:47:25;3.63;;;1.97;;
11907;SDS011;6014;47.690;9.130;2024-03-23T02:49:52;3.67;;;2.00;;
11907;SDS011;6014;47.690;9.130;2024-03-23T02:52:19;4.10;;;1.80;;
11907;SDS011;6014;47.690;9.130;2024-03-23T02:54:46;4.30;;;2.00;;
11907;SDS011;6014;47.690;9.130;2024-03-23T02:57:14;2.93;;;1.60;;
11907;SDS011;6014;47.690;9.130;2024-03-23T02:59:43;2.73;;;1.50;;
11907;SDS011;6014;47.690;9.130;2024-03-23T03:02:10;3.07;;;1.60;;
11907;SDS011;6014;47.690;9.130;2024-03-23T03:04:39;3.13;;;1.83;;
11907;SDS011;6014;47.690;9.130;2024-03-23T03:07:05;3.37;;;1.80;;
11907;SDS011;6014;47.690;9.130;2024-03-23T03:09:33;4.60;;;2.30;;
11907;SDS011;6014;47.690;9.130;2024-03-23T03:12:00;3.97;;;1.90;;
11907;SDS011;6014;47.690;9.130;2024-03-23T03:14:29;3.50;;;1.90;;
11907;SDS011;6014;47.690;9.130;2024-03-23T03:16:56;5.03;;;1.87;;
11907;SDS011;6014;47.690;9.130;2024-03-23T03:19:23;3.63;;;2.30;;
11907;SDS011;6014;47.690;9.130;2024-03-23T03:21:49;4.07;;;1.93;;
11907;SDS011;6014;47.690;9.130;2024-03-23T03:24:17;2.77;;;1.73;;
11907;SDS011;6014;47.690;9.130;2024-03-23T03:26:43;3.30;;;1.50;;
11907;SDS011;6014;47.690;9.130;2024-03-23T03:29:11;3.40;;;1.70;;
11907;SDS011;6014;47.690;9.130;2024-03-23T03:31:38;4.67;;;1.90;;
11907;SDS011;6014;47.690;9.130;2024-03-23T03:34:06;3.93;;;2.10;;
11907;SDS011;6014;47.690;9.130;2024-03-23T03:36:32;4.47;;;2.07;;
11907;SDS011;6014;47.690;9.130;2024-03-23T03:38:59;3.17;;;1.80;;
11907;SDS011;6014;47.690;9.130;2024-03-23T03:41:26;3.73;;;2.10;;
11907;SDS011;6014;47.690;9.130;2024-03-23T03:43:53;5.60;;;1.90;;
11907;SDS011;6014;47.690;9.130;2024-03-23T03:46:20;4.07;;;1.97;;
11907;SDS011;6014;47.690;9.130;2024-03-23T03:48:49;2.60;;;1.80;;
11907;SDS011;6014;47.690;9.130;2024-03-23T03:51:15;3.57;;;1.70;;
11907;SDS011;6014;47.690;9.130;2024-03-23T03:53:43;6.23;;;2.10;;
11907;SDS011;6014;47.690;9.130;2024-03-23T03:56:09;3.43;;;2.00;;
11907;SDS011;6014;47.690;9.130;2024-03-23T03:58:36;5.83;;;2.20;;
11907;SDS011;6014;47.690;9.130;2024-03-23T04:01:02;4.00;;;2.00;;
11907;SDS011;6014;47.690;9.130;2024-03-23T04:03:30;3.27;;;1.93;;
11907;SDS011;6014;47.690;9.130;2024-03-23T04:05:57;3.30;;;1.83;;
11907;SDS011;6014;47.690;9.130;2024-03-23T04:08:25;3.57;;;1.70;;
11907;SDS011;6014;47.690;9.130;2024-03-23T04:10:51;4.60;;;2.03;;
11907;SDS011;6014;47.690;9.130;2024-03-23T04:13:18;7.07;;;2.30;;
11907;SDS011;6014;47.690;9.130;2024-03-23T04:15:44;3.43;;;1.77;;
11907;SDS011;6014;47.690;9.130;2024-03-23T04:18:12;5.13;;;2.40;;
11907;SDS011;6014;47.690;9.130;2024-03-23T04:20:38;3.53;;;2.13;;
11907;SDS011;6014;47.690;9.130;2024-03-23T04:23:06;5.10;;;2.00;;
11907;SDS011;6014;47.690;9.130;2024-03-23T04:25:44;3.93;;;2.10;;
11907;SDS011;6014;47.690;9.130;2024-03-23T04:28:11;5.33;;;2.23;;
11907;SDS011;6014;47.690;9.130;2024-03-23T04:30:37;3.50;;;1.90;;
11907;SDS011;6014;47.690;9.130;2024-03-23T04:33:05;4.83;;;1.77;;
11907;SDS011;6014;47.690;9.130;2024-03-23T04:35:31;4.20;;;2.07;;
11907;SDS011;6014;47.690;9.130;2024-03-23T04:37:58;4.40;;;2.57;;
11907;SDS011;6014;47.690;9.130;2024-03-23T04:40:27;4.83;;;2.17;;
11907;SDS011;6014;47.690;9.130;2024-03-23T04:42:54;4.87;;;2.20;;
11907;SDS011;6014;47.690;9.130;2024-03-23T04:45:21;4.87;;;2.60;;
11907;SDS011;6014;47.690;9.130;2024-03-23T04:47:49;8.63;;;2.40;;
11907;SDS011;6014;47.690;9.130;2024-03-23T04:50:16;5.27;;;2.37;;
11907;SDS011;6014;47.690;9.130;2024-03-23T04:52:43;4.30;;;2.00;;
11907;SDS011;6014;47.690;9.130;2024-03-23T04:55:11;3.77;;;2.07;;
11907;SDS011;6014;47.690;9.130;2024-03-23T04:57:40;7.03;;;2.37;;
11907;SDS011;6014;47.690;9.130;2024-03-23T05:00:07;5.37;;;2.20;;
11907;SDS011;6014;47.690;9.130;2024-03-23T05:02:43;4.83;;;2.30;;
11907;SDS011;6014;47.690;9.130;2024-03-23T05:05:11;4.67;;;2.07;;
11907;SDS011;6014;47.690;9.130;2024-03-23T05:07:38;3.70;;;1.93;;
11907;SDS011;6014;47.690;9.130;2024-03-23T05:10:07;4.73;;;1.73;;
11907;SDS011;6014;47.690;9.130;2024-03-23T05:12:36;5.50;;;2.33;;
11907;SDS011;6014;47.690;9.130;2024-03-23T05:15:05;4.30;;;1.90;;
11907;SDS011;6014;47.690;9.130;2024-03-23T05:17:32;6.80;;;2.27;;
11907;SDS011;6014;47.690;9.130;2024-03-23T05:20:01;5.70;;;2.23;;
11907;SDS011;6014;47.690;9.130;2024-03-23T05:22:28;4.73;;;2.00;;
11907;SDS011;6014;47.690;9.130;2024-03-23T05:24:56;3.47;;;2.03;;
11907;SDS011;6014;47.690;9.130;2024-03-23T05:27:22;6.00;;;2.10;;
11907;SDS011;6014;47.690;9.130;2024-03-23T05:29:49;3.30;;;1.93;;
11907;SDS011;6014;47.690;9.130;2024-03-23T05:32:24;5.97;;;1.80;;
11907;SDS011;6014;47.690;9.130;2024-03-23T05:34:53;4.20;;;1.87;;
11907;SDS011;6014;47.690;9.130;2024-03-23T05:37:22;5.50;;;2.00;;
11907;SDS011;6014;47.690;9.130;2024-03-23T05:39:49;3.13;;;1.30;;
11907;SDS011;6014;47.690;9.130;2024-03-23T05:42:15;2.73;;;1.77;;
11907;SDS011;6014;47.690;9.130;2024-03-23T05:44:43;1.92;;;1.38;;
11907;SDS011;6014;47.690;9.130;2024-03-23T05:47:10;4.43;;;1.67;;
11907;SDS011;6014;47.690;9.130;2024-03-23T05:49:41;2.88;;;1.55;;
11907;SDS011;6014;47.690;9.130;2024-03-23T05:52:08;2.85;;;1.48;;
11907;SDS011;6014;47.690;9.130;2024-03-23T05:54:38;4.60;;;1.90;;
11907;SDS011;6014;47.690;9.130;2024-03-23T05:57:05;7.18;;;2.47;;
11907;SDS011;6014;47.690;9.130;2024-03-23T05:59:33;3.73;;;1.97;;
11907;SDS011;6014;47.690;9.130;2024-03-23T06:02:00;5.47;;;2.30;;
11907;SDS011;6014;47.690;9.130;2024-03-23T06:04:27;5.60;;;2.50;;
11907;SDS011;6014;47.690;9.130;2024-03-23T06:06:55;4.70;;;2.33;;
11907;SDS011;6014;47.690;9.130;2024-03-23T06:09:23;2.93;;;1.60;;
11907;SDS011;6014;47.690;9.130;2024-03-23T06:11:49;2.67;;;1.67;;
11907;SDS011;6014;47.690;9.130;2024-03-23T06:14:16;3.00;;;1.80;;
11907;SDS011;6014;47.690;9.130;2024-03-23T06:16:42;4.13;;;1.90;;
11907;SDS011;6014;47.690;9.130;2024-03-23T06:19:10;4.13;;;2.00;;
11907;SDS011;6014;47.690;9.130;2024-03-23T06:21:36;3.60;;;1.97;;
11907;SDS011;6014;47.690;9.130;2024-03-23T06:24:05;3.87;;;1.77;;
11907;SDS011;6014;47.690;9.130;2024-03-23T06:29:17;4.47;;;2.00;;
11907;SDS011;6014;47.690;9.130;2024-03-23T06:31:51;4.77;;;2.30;;
11907;SDS011;6014;47.690;9.130;2024-03-23T06:37:18;7.70;;;2.20;;
11907;SDS011;6014;47.690;9.130;2024-03-23T06:39:47;4.17;;;1.67;;
11907;SDS011;6014;47.690;9.130;2024-03-23T06:42:13;3.33;;;2.03;;
11907;SDS011;6014;47.690;9.130;2024-03-23T06:44:43;5.63;;;2.00;;
11907;SDS011;6014;47.690;9.130;2024-03-23T06:47:09;2.70;;;1.53;;
11907;SDS011;6014;47.690;9.130;2024-03-23T06:49:36;4.27;;;2.33;;
11907;SDS011;6014;47.690;9.130;2024-03-23T06:52:03;2.90;;;1.63;;
11907;SDS011;6014;47.690;9.130;2024-03-23T06:54:30;1.97;;;1.20;;
11907;SDS011;6014;47.690;9.130;2024-03-23T06:56:58;3.83;;;1.90;;
11907;SDS011;6014;47.690;9.130;2024-03-23T06:59:33;1.83;;;1.27;;
11907;SDS011;6014;47.690;9.130;2024-03-23T07:01:59;3.13;;;1.77;;
11907;SDS011;6014;47.690;9.130;2024-03-23T07:04:26;3.03;;;1.53;;
11907;SDS011;6014;47.690;9.130;2024-03-23T07:07:01;2.27;;;1.60;;
11907;SDS011;6014;47.690;9.130;2024-03-23T07:09:29;2.17;;;1.67;;
11907;SDS011;6014;47.690;9.130;2024-03-23T07:12:00;2.63;;;1.63;;
11907;SDS011;6014;47.690;9.130;2024-03-23T07:14:27;2.33;;;1.30;;
11907;SDS011;6014;47.690;9.130;2024-03-23T07:16:53;4.33;;;2.53;;
11907;SDS011;6014;47.690;9.130;2024-03-23T07:19:21;3.10;;;1.77;;
11907;SDS011;6014;47.690;9.130;2024-03-23T07:21:50;3.50;;;2.13;;
11907;SDS011;6014;47.690;9.130;2024-03-23T07:24:17;3.60;;;1.90;;
11907;SDS011;6014;47.690;9.130;2024-03-23T07:26:43;5.40;;;2.70;;
11907;SDS011;6014;47.690;9.130;2024-03-23T07:29:12;3.43;;;1.80;;
11907;SDS011;6014;47.690;9.130;2024-03-23T07:31:45;4.80;;;2.13;;
11907;SDS011;6014;47.690;9.130;2024-03-23T07:34:12;2.83;;;1.80;;
11907;SDS011;6014;47.690;9.130;2024-03-23T07:36:38;5.37;;;2.43;;
11907;SDS011;6014;47.690;9.130;2024-03-23T07:39:06;5.27;;;2.40;;
11907;SDS011;6014;47.690;9.130;2024-03-23T07:41:33;6.07;;;1.65;;
11907;SDS011;6014;47.690;9.130;2024-03-23T07:44:00;4.03;;;1.90;;
11907;SDS011;6014;47.690;9.130;2024-03-23T07:46:28;5.23;;;2.60;;
11907;SDS011;6014;47.690;9.130;2024-03-23T07:49:06;3.53;;;2.43;;
11907;SDS011;6014;47.690;9.130;2024-03-23T07:51:33;2.80;;;1.57;;
11907;SDS011;6014;47.690;9.130;2024-03-23T07:54:07;6.57;;;2.53;;
11907;SDS011;6014;47.690;9.130;2024-03-23T07:56:35;2.73;;;1.57;;
11907;SDS011;6014;47.690;9.130;2024-03-23T07:59:12;4.65;;;2.25;;
11907;SDS011;6014;47.690;9.130;2024-03-23T08:01:39;2.22;;;1.45;;
11907;SDS011;6014;47.690;9.130;2024-03-23T08:04:07;4.90;;;2.75;;
11907;SDS011;6014;47.690;9.130;2024-03-23T08:06:33;3.78;;;1.90;;
11907;SDS011;6014;47.690;9.130;2024-03-23T08:09:01;3.80;;;2.10;;
11907;SDS011;6014;47.690;9.130;2024-03-23T08:11:28;4.75;;;2.35;;
11907;SDS011;6014;47.690;9.130;2024-03-23T08:14:07;4.20;;;2.35;;
11907;SDS011;6014;47.690;9.130;2024-03-23T08:16:33;4.63;;;2.05;;
11907;SDS011;6014;47.690;9.130;2024-03-23T08:19:01;2.92;;;1.92;;
11907;SDS011;6014;47.690;9.130;2024-03-23T08:21:29;4.23;;;1.73;;
11907;SDS011;6014;47.690;9.130;2024-03-23T08:23:56;0.80;;;0.80;;
11907;SDS011;6014;47.690;9.130;2024-03-23T08:26:22;0.40;;;0.40;;
11907;SDS011;6014;47.690;9.130;2024-03-23T08:28:50;0.60;;;0.60;;
11907;SDS011;6014;47.690;9.130;2024-03-23T08:31:17;0.50;;;0.50;;
11907;SDS011;6014;47.690;9.130;2024-03-23T08:33:44;0.53;;;0.53;;
11907;SDS011;6014;47.690;9.130;2024-03-23T08:36:12;0.50;;;0.50;;
11907;SDS011;6014;47.690;9.130;2024-03-23T08:38:39;0.80;;;0.80;;
11907;SDS011;6014;47.690;9.130;2024-03-23T08:41:06;0.70;;;0.70;;
11907;SDS011;6014;47.690;9.130;2024-03-23T08:43:35;0.57;;;0.57;;
11907;SDS011;6014;47.690;9.130;2024-03-23T08:46:05;0.50;;;0.50;;
11907;SDS011;6014;47.690;9.130;2024-03-23T08:48:37;0.60;;;0.60;;
11907;SDS011;6014;47.690;9.130;2024-03-23T08:51:17;15.37;;;0.77;;
11907;SDS011;6014;47.690;9.130;2024-03-23T08:53:45;0.80;;;0.80;;
11907;SDS011;6014;47.690;9.130;2024-03-23T08:56:11;0.50;;;0.50;;
11907;SDS011;6014;47.690;9.130;2024-03-23T08:58:50;1.23;;;1.13;;
11907;SDS011;6014;47.690;9.130;2024-03-23T09:01:18;2.10;;;1.03;;
11907;SDS011;6014;47.690;9.130;2024-03-23T09:03:45;0.50;;;0.50;;
11907;SDS011;6014;47.690;9.130;2024-03-23T09:06:12;2.20;;;1.10;;
11907;SDS011;6014;47.690;9.130;2024-03-23T09:08:46;0.57;;;0.57;;
11907;SDS011;6014;47.690;9.130;2024-03-23T09:11:12;0.40;;;0.40;;
11907;SDS011;6014;47.690;9.130;2024-03-23T09:13:40;0.97;;;0.90;;
11907;SDS011;6014;47.690;9.130;2024-03-23T09:16:07;1.07;;;0.70;;
11907;SDS011;6014;47.690;9.130;2024-03-23T09:18:35;0.50;;;0.50;;
11907;SDS011;6014;47.690;9.130;2024-03-23T09:21:02;0.43;;;0.40;;
11907;SDS011;6014;47.690;9.130;2024-03-23T09:23:30;0.70;;;0.67;;
11907;SDS011;6014;47.690;9.130;2024-03-23T09:25:58;0.50;;;0.50;;
11907;SDS011;6014;47.690;9.130;2024-03-23T09:28:29;0.60;;;0.60;;
11907;SDS011;6014;47.690;9.130;2024-03-23T09:31:01;0.80;;;0.80;;
11907;SDS011;6014;47.690;9.130;2024-03-23T09:33:29;0.40;;;0.40;;
11907;SDS011;6014;47.690;9.130;2024-03-23T09:35:55;0.90;;;0.70;;
11907;SDS011;6014;47.690;9.130;2024-03-23T09:38:23;0.70;;;0.70;;
11907;SDS011;6014;47.690;9.130;2024-03-23T09:40:50;0.70;;;0.63;;
11907;SDS011;6014;47.690;9.130;2024-03-23T09:43:21;0.37;;;0.37;;
11907;SDS011;6014;47.690;9.130;2024-03-23T09:45:47;0.50;;;0.50;;
11907;SDS011;6014;47.690;9.130;2024-03-23T09:48:16;0.40;;;0.40;;
11907;SDS011;6014;47.690;9.130;2024-03-23T09:50:43;0.60;;;0.60;;
11907;SDS011;6014;47.690;9.130;2024-03-23T09:53:12;0.50;;;0.50;;
11907;SDS011;6014;47.690;9.130;2024-03-23T09:55:39;0.60;;;0.60;;
11907;SDS011;6014;47.690;9.130;2024-03-23T09:58:08;0.60;;;0.60;;
11907;SDS011;6014;47.690;9.130;2024-03-23T10:00:40;0.60;;;0.60;;
11907;SDS011;6014;47.690;9.130;2024-03-23T10:05:38;1.13;;;0.90;;
11907;SDS011;6014;47.690;9.130;2024-03-23T10:08:20;0.60;;;0.60;;
11907;SDS011;6014;47.690;9.130;2024-03-23T10:11:07;0.80;;;0.70;;
11907;SDS011;6014;47.690;9.130;2024-03-23T10:13:42;0.80;;;0.73;;
11907;SDS011;6014;47.690;9.130;2024-03-23T10:16:10;0.90;;;0.67;;
11907;SDS011;6014;47.690;9.130;2024-03-23T10:18:38;1.40;;;0.83;;
11907;SDS011;6014;47.690;9.130;2024-03-23T10:21:09;3.20;;;1.00;;
11907;SDS011;6014;47.690;9.130;2024-03-23T10:23:44;1.43;;;0.90;;
11907;SDS011;6014;47.690;9.130;2024-03-23T10:26:15;1.03;;;0.80;;
11907;SDS011;6014;47.690;9.130;2024-03-23T10:28:56;1.23;;;0.97;;
11907;SDS011;6014;47.690;9.130;2024-03-23T10:31:31;0.93;;;0.70;;
11907;SDS011;6014;47.690;9.130;2024-03-23T10:33:58;1.60;;;0.80;;
11907;SDS011;6014;47.690;9.130;2024-03-23T10:36:30;2.23;;;1.23;;
11907;SDS011;6014;47.690;9.130;2024-03-23T10:38:57;0.97;;;0.77;;
11907;SDS011;6014;47.690;9.130;2024-03-23T10:41:26;3.10;;;1.10;;
11907;SDS011;6014;47.690;9.130;2024-03-23T10:43:57;2.70;;;0.90;;
11907;SDS011;6014;47.690;9.130;2024-03-23T10:46:24;3.27;;;1.00;;
11907;SDS011;6014;47.690;9.130;2024-03-23T10:48:53;1.80;;;0.90;;
11907;SDS011;6014;47.690;9.130;2024-03-23T10:51:19;1.43;;;0.90;;
11907;SDS011;6014;47.690;9.130;2024-03-23T10:53:47;2.07;;;0.90;;
11907;SDS011;6014;47.690;9.130;2024-03-23T10:56:16;1.20;;;0.90;;
11907;SDS011;6014;47.690;9.130;2024-03-23T10:58:46;2.70;;;1.02;;
11907;SDS011;6014;47.690;9.130;2024-03-23T11:01:14;1.88;;;0.90;;
11907;SDS011;6014;47.690;9.130;2024-03-23T11:03:44;2.22;;;0.98;;
11907;SDS011;6014;47.690;9.130;2024-03-23T11:06:33;4.10;;;1.13;;
11907;SDS011;6014;47.690;9.130;2024-03-23T11:09:03;0.77;;;0.65;;
11907;SDS011;6014;47.690;9.130;2024-03-23T11:14:12;2.33;;;1.30;;
11907;SDS011;6014;47.690;9.130;2024-03-23T11:16:48;5.00;;;1.80;;
11907;SDS011;6014;47.690;9.130;2024-03-23T11:19:36;5.13;;;1.10;;
11907;SDS011;6014;47.690;9.130;2024-03-23T11:22:04;4.10;;;1.10;;
11907;SDS011;6014;47.690;9.130;2024-03-23T11:24:33;3.67;;;1.15;;
11907;SDS011;6014;47.690;9.130;2024-03-23T11:26:59;5.75;;;1.40;;
11907;SDS011;6014;47.690;9.130;2024-03-23T11:29:30;3.53;;;1.23;;
11907;SDS011;6014;47.690;9.130;2024-03-23T11:34:29;2.50;;;1.30;;
11907;SDS011;6014;47.690;9.130;2024-03-23T11:37:05;5.63;;;1.67;;
11907;SDS011;6014;47.690;9.130;2024-03-23T11:39:33;3.40;;;1.23;;
11907;SDS011;6014;47.690;9.130;2024-03-23T11:44:33;4.28;;;1.92;;
11907;SDS011;6014;47.690;9.130;2024-03-23T11:47:07;4.22;;;1.75;;
11907;SDS011;6014;47.690;9.130;2024-03-23T11:49:36;4.95;;;1.95;;
11907;SDS011;6014;47.690;9.130;2024-03-23T11:52:07;5.28;;;1.95;;
11907;SDS011;6014;47.690;9.130;2024-03-23T11:54:34;2.53;;;1.38;;
11907;SDS011;6014;47.690;9.130;2024-03-23T12:02:07;3.35;;;1.42;;
11907;SDS011;6014;47.690;9.130;2024-03-23T12:04:49;3.88;;;1.38;;
11907;SDS011;6014;47.690;9.130;2024-03-23T12:07:20;5.15;;;1.85;;
11907;SDS011;6014;47.690;9.130;2024-03-23T12:10:02;3.83;;;1.50;;
11907;SDS011;6014;47.690;9.130;2024-03-23T12:12:29;6.00;;;1.70;;
11907;SDS011;6014;47.690;9.130;2024-03-23T12:15:06;3.17;;;1.08;;
11907;SDS011;6014;47.690;9.130;2024-03-23T12:17:34;8.52;;;1.88;;
11907;SDS011;6014;47.690;9.130;2024-03-23T12:20:01;1.48;;;1.10;;
11907;SDS011;6014;47.690;9.130;2024-03-23T12:22:30;4.65;;;1.60;;
11907;SDS011;6014;47.690;9.130;2024-03-23T12:24:59;2.05;;;1.20;;
11907;SDS011;6014;47.690;9.130;2024-03-23T12:27:26;5.20;;;1.42;;
11907;SDS011;6014;47.690;9.130;2024-03-23T12:29:56;4.35;;;1.42;;
11907;SDS011;6014;47.690;9.130;2024-03-23T12:32:23;3.50;;;1.20;;
11907;SDS011;6014;47.690;9.130;2024-03-23T12:34:50;2.97;;;1.23;;
11907;SDS011;6014;47.690;9.130;2024-03-23T12:37:17;2.53;;;1.10;;
11907;SDS011;6014;47.690;9.130;2024-03-23T12:39:46;7.05;;;1.40;;
11907;SDS011;6014;47.690;9.130;2024-03-23T12:42:21;1.55;;;0.82;;
11907;SDS011;6014;47.690;9.130;2024-03-23T12:44:49;2.75;;;1.05;;
11907;SDS011;6014;47.690;9.130;2024-03-23T12:47:15;3.15;;;1.38;;
11907;SDS011;6014;47.690;9.130;2024-03-23T12:49:43;1.63;;;0.98;;
11907;SDS011;6014;47.690;9.130;2024-03-23T12:52:09;4.13;;;1.17;;
11907;SDS011;6014;47.690;9.130;2024-03-23T12:54:38;1.88;;;0.63;;
11907;SDS011;6014;47.690;9.130;2024-03-23T12:57:07;1.25;;;0.73;;
11907;SDS011;6014;47.690;9.130;2024-03-23T12:59:35;0.80;;;0.57;;
11907;SDS011;6014;47.690;9.130;2024-03-23T13:02:01;0.97;;;0.70;;
11907;SDS011;6014;47.690;9.130;2024-03-23T13:04:28;1.30;;;0.77;;
11907;SDS011;6014;47.690;9.130;2024-03-23T13:06:55;0.47;;;0.43;;
11907;SDS011;6014;47.690;9.130;2024-03-23T13:09:29;0.93;;;0.80;;
11907;SDS011;6014;47.690;9.130;2024-03-23T13:11:55;7.43;;;0.52;;
11907;SDS011;6014;47.690;9.130;2024-03-23T13:14:24;0.60;;;0.60;;
11907;SDS011;6014;47.690;9.130;2024-03-23T13:16:53;0.50;;;0.50;;
11907;SDS011;6014;47.690;9.130;2024-03-23T13:19:21;0.60;;;0.60;;
11907;SDS011;6014;47.690;9.130;2024-03-23T13:21:52;0.93;;;0.70;;
11907;SDS011;6014;47.690;9.130;2024-03-23T13:24:21;0.93;;;0.77;;
11907;SDS011;6014;47.690;9.130;2024-03-23T13:27:02;0.57;;;0.57;;
11907;SDS011;6014;47.690;9.130;2024-03-23T13:29:31;0.70;;;0.70;;
11907;SDS011;6014;47.690;9.130;2024-03-23T13:31:57;1.92;;;0.80;;
11907;SDS011;6014;47.690;9.130;2024-03-23T13:34:24;0.60;;;0.60;;
11907;SDS011;6014;47.690;9.130;2024-03-23T13:36:51;0.43;;;0.43;;
11907;SDS011;6014;47.690;9.130;2024-03-23T13:39:18;0.82;;;0.77;;
11907;SDS011;6014;47.690;9.130;2024-03-23T13:41:44;1.10;;;0.80;;
11907;SDS011;6014;47.690;9.130;2024-03-23T13:53:18;2.25;;;1.13;;
11907;SDS011;6014;47.690;9.130;2024-03-23T13:55:48;5.03;;;1.40;;
11907;SDS011;6014;47.690;9.130;2024-03-23T13:58:15;2.15;;;1.20;;
11907;SDS011;6014;47.690;9.130;2024-03-23T14:00:42;3.08;;;1.17;;
11907;SDS011;6014;47.690;9.130;2024-03-23T14:03:09;2.83;;;1.05;;
11907;SDS011;6014;47.690;9.130;2024-03-23T14:05:36;0.60;;;0.60;;
11907;SDS011;6014;47.690;9.130;2024-03-23T14:08:19;2.67;;;1.17;;
11907;SDS011;6014;47.690;9.130;2024-03-23T14:10:47;1.92;;;1.13;;
11907;SDS011;6014;47.690;9.130;2024-03-23T14:13:13;2.30;;;1.05;;
11907;SDS011;6014;47.690;9.130;2024-03-23T14:15:44;1.52;;;1.00;;
11907;SDS011;6014;47.690;9.130;2024-03-23T14:18:11;1.65;;;1.02;;
11907;SDS011;6014;47.690;9.130;2024-03-23T14:20:39;2.45;;;1.20;;
11907;SDS011;6014;47.690;9.130;2024-03-23T14:23:06;2.38;;;0.93;;
11907;SDS011;6014;47.690;9.130;2024-03-23T14:25:34;6.63;;;1.10;;
11907;SDS011;6014;47.690;9.130;2024-03-23T14:30:33;10.27;;;1.27;;
11907;SDS011;6014;47.690;9.130;2024-03-23T14:33:00;2.28;;;0.90;;
11907;SDS011;6014;47.690;9.130;2024-03-23T14:35:27;2.92;;;1.10;;
11907;SDS011;6014;47.690;9.130;2024-03-23T14:37:54;1.95;;;0.70;;
11907;SDS011;6014;47.690;9.130;2024-03-23T14:40:20;0.65;;;0.65;;
11907;SDS011;6014;47.690;9.130;2024-03-23T14:42:49;1.90;;;1.08;;
11907;SDS011;6014;47.690;9.130;2024-03-23T14:45:16;2.10;;;1.10;;
11907;SDS011;6014;47.690;9.130;2024-03-23T14:47:43;4.20;;;1.13;;
11907;SDS011;6014;47.690;9.130;2024-03-23T14:50:10;4.33;;;1.43;;
11907;SDS011;6014;47.690;9.130;2024-03-23T14:52:41;7.63;;;3.53;;
11907;SDS011;6014;47.690;9.130;2024-03-23T14:55:07;2.45;;;1.02;;
11907;SDS011;6014;47.690;9.130;2024-03-23T14:57:35;1.30;;;1.05;;
11907;SDS011;6014;47.690;9.130;2024-03-23T15:00:03;1.92;;;1.05;;
11907;SDS011;6014;47.690;9.130;2024-03-23T15:02:33;1.50;;;0.90;;
11907;SDS011;6014;47.690;9.130;2024-03-23T15:04:59;1.55;;;1.08;;
11907;SDS011;6014;47.690;9.130;2024-03-23T15:07:29;1.60;;;0.93;;
11907;SDS011;6014;47.690;9.130;2024-03-23T15:10:08;1.70;;;0.90;;
11907;SDS011;6014;47.690;9.130;2024-03-23T15:12:39;1.92;;;0.93;;
11907;SDS011;6014;47.690;9.130;2024-03-23T15:15:08;3.20;;;1.13;;
11907;SDS011;6014;47.690;9.130;2024-03-23T15:17:37;1.52;;;1.02;;
11907;SDS011;6014;47.690;9.130;2024-03-23T15:20:07;3.72;;;1.20;;
11907;SDS011;6014;47.690;9.130;2024-03-23T15:22:36;3.53;;;1.23;;
11907;SDS011;6014;47.690;9.130;2024-03-23T15:25:03;1.35;;;0.70;;
11907;SDS011;6014;47.690;9.130;2024-03-23T15:27:31;0.70;;;0.70;;
11907;SDS011;6014;47.690;9.130;2024-03-23T15:29:57;4.53;;;1.65;;
11907;SDS011;6014;47.690;9.130;2024-03-23T15:32:31;2.38;;;1.02;;
11907;SDS011;6014;47.690;9.130;2024-03-23T15:34:57;1.98;;;1.20;;
11907;SDS011;6014;47.690;9.130;2024-03-23T15:37:24;4.35;;;1.58;;
11907;SDS011;6014;47.690;9.130;2024-03-23T15:39:50;2.80;;;1.20;;
11907;SDS011;6014;47.690;9.130;2024-03-23T15:42:18;3.15;;;1.42;;
11907;SDS011;6014;47.690;9.130;2024-03-23T15:44:44;3.58;;;1.33;;
11907;SDS011;6014;47.690;9.130;2024-03-23T15:47:11;2.10;;;0.95;;
11907;SDS011;6014;47.690;9.130;2024-03-23T15:49:39;7.47;;;2.95;;
11907;SDS011;6014;47.690;9.130;2024-03-23T15:52:07;3.47;;;1.92;;
11907;SDS011;6014;47.690;9.130;2024-03-23T15:54:33;2.70;;;1.10;;
11907;SDS011;6014;47.690;9.130;2024-03-23T15:57:02;3.83;;;1.13;;
11907;SDS011;6014;47.690;9.130;2024-03-23T15:59:28;3.15;;;1.10;;
11907;SDS011;6014;47.690;9.130;2024-03-23T16:01:56;3.78;;;1.00;;
11907;SDS011;6014;47.690;9.130;2024-03-23T16:04:22;3.70;;;1.27;;
11907;SDS011;6014;47.690;9.130;2024-03-23T16:06:51;2.28;;;1.10;;
11907;SDS011;6014;47.690;9.130;2024-03-23T16:09:17;3.05;;;1.10;;
11907;SDS011;6014;47.690;9.130;2024-03-23T16:11:45;1.20;;;0.70;;
11907;SDS011;6014;47.690;9.130;2024-03-23T16:14:11;3.30;;;1.02;;
11907;SDS011;6014;47.690;9.130;2024-03-23T16:16:38;2.05;;;1.30;;
11907;SDS011;6014;47.690;9.130;2024-03-23T16:19:05;7.45;;;1.23;;
11907;SDS011;6014;47.690;9.130;2024-03-23T16:21:32;1.00;;;0.85;;
11907;SDS011;6014;47.690;9.130;2024-03-23T16:24:00;2.45;;;0.75;;
11907;SDS011;6014;47.690;9.130;2024-03-23T16:26:29;0.70;;;0.70;;
11907;SDS011;6014;47.690;9.130;2024-03-23T16:28:55;1.23;;;0.90;;
11907;SDS011;6014;47.690;9.130;2024-03-23T16:31:23;0.82;;;0.80;;
11907;SDS011;6014;47.690;9.130;2024-03-23T16:33:49;2.77;;;1.60;;
11907;SDS011;6014;47.690;9.130;2024-03-23T16:36:17;1.13;;;1.03;;
11907;SDS011;6014;47.690;9.130;2024-03-23T16:38:44;2.27;;;1.27;;